sensor_id;sensor_type;location;lat;lon;timestamp;temperature;humidity
36292;DHT22;22327;51.208;6.418;2024-03-02T00:02:17;11.60;94.50
36292;DHT22;22327;51.208;6.418;2024-03-02T00:05:22;11.70;94.50
36292;DHT22;22327;51.208;6.418;2024-03-02T00:08:24;11.70;94.40
36292;DHT22;22327;51.208;6.418;2024-03-02T00:11:26;11.80;94.30
36292;DHT22;22327;51.208;6.418;2024-03-02T00:14:30;11.80;94.40
36292;DHT22;22327;51.208;6.418;2024-03-02T00:17:31;11.90;94.40
36292;DHT22;22327;51.208;6.418;2024-03-02T00:20:31;11.90;94.20
36292;DHT22;22327;51.208;6.418;2024-03-02T00:23:33;12.00;94.20
36292;DHT22;22327;51.208;6.418;2024-03-02T00:26:34;12.10;94.10
36292;DHT22;22327;51.208;6.418;2024-03-02T00:29:35;12.00;94.10
36292;DHT22;22327;51.208;6.418;2024-03-02T00:32:35;12.00;94.10
36292;DHT22;22327;51.208;6.418;2024-03-02T00:35:36;12.10;94.10
36292;DHT22;22327;51.208;6.418;2024-03-02T00:41:46;12.10;93.80
36292;DHT22;22327;51.208;6.418;2024-03-02T00:44:48;12.20;94.00
36292;DHT22;22327;51.208;6.418;2024-03-02T00:47:48;12.20;93.70
36292;DHT22;22327;51.208;6.418;2024-03-02T00:50:52;12.20;93.80
36292;DHT22;22327;51.208;6.418;2024-03-02T00:53:54;12.20;93.70
36292;DHT22;22327;51.208;6.418;2024-03-02T00:56:57;12.10;93.80
36292;DHT22;22327;51.208;6.418;2024-03-02T00:59:58;12.10;93.90
36292;DHT22;22327;51.208;6.418;2024-03-02T01:02:58;12.00;94.00
36292;DHT22;22327;51.208;6.418;2024-03-02T01:05:59;11.90;94.10
36292;DHT22;22327;51.208;6.418;2024-03-02T01:08:59;12.00;94.20
36292;DHT22;22327;51.208;6.418;2024-03-02T01:12:00;11.90;94.20
36292;DHT22;22327;51.208;6.418;2024-03-02T01:15:01;11.90;94.20
36292;DHT22;22327;51.208;6.418;2024-03-02T01:18:01;12.00;94.20
36292;DHT22;22327;51.208;6.418;2024-03-02T01:21:02;11.90;94.20
36292;DHT22;22327;51.208;6.418;2024-03-02T01:24:03;11.90;94.30
36292;DHT22;22327;51.208;6.418;2024-03-02T01:27:04;11.80;94.40
36292;DHT22;22327;51.208;6.418;2024-03-02T01:30:05;11.80;94.50
36292;DHT22;22327;51.208;6.418;2024-03-02T01:33:06;11.80;94.60
36292;DHT22;22327;51.208;6.418;2024-03-02T01:36:07;11.90;94.70
36292;DHT22;22327;51.208;6.418;2024-03-02T01:39:08;11.90;94.40
36292;DHT22;22327;51.208;6.418;2024-03-02T01:42:09;12.00;94.40
36292;DHT22;22327;51.208;6.418;2024-03-02T01:45:11;12.10;94.30
36292;DHT22;22327;51.208;6.418;2024-03-02T01:48:11;12.20;94.20
36292;DHT22;22327;51.208;6.418;2024-03-02T01:51:12;12.30;94.10
36292;DHT22;22327;51.208;6.418;2024-03-02T01:54:12;12.40;93.90
36292;DHT22;22327;51.208;6.418;2024-03-02T01:57:13;12.40;93.80
36292;DHT22;22327;51.208;6.418;2024-03-02T02:00:14;12.40;93.80
36292;DHT22;22327;51.208;6.418;2024-03-02T02:03:15;12.50;93.80
36292;DHT22;22327;51.208;6.418;2024-03-02T02:06:15;12.50;93.60
36292;DHT22;22327;51.208;6.418;2024-03-02T02:09:16;12.50;93.70
36292;DHT22;22327;51.208;6.418;2024-03-02T02:12:18;12.60;93.80
36292;DHT22;22327;51.208;6.418;2024-03-02T02:15:26;12.60;93.60
36292;DHT22;22327;51.208;6.418;2024-03-02T02:18:27;12.70;93.60
36292;DHT22;22327;51.208;6.418;2024-03-02T02:21:28;12.70;93.50
36292;DHT22;22327;51.208;6.418;2024-03-02T02:24:28;12.80;93.40
36292;DHT22;22327;51.208;6.418;2024-03-02T02:27:29;12.80;93.40
36292;DHT22;22327;51.208;6.418;2024-03-02T02:30:31;12.80;93.40
36292;DHT22;22327;51.208;6.418;2024-03-02T02:33:32;12.90;93.60
36292;DHT22;22327;51.208;6.418;2024-03-02T02:36:33;12.90;93.40
36292;DHT22;22327;51.208;6.418;2024-03-02T02:39:34;12.80;94.20
36292;DHT22;22327;51.208;6.418;2024-03-02T02:42:35;12.90;94.70
36292;DHT22;22327;51.208;6.418;2024-03-02T02:45:35;13.00;95.10
36292;DHT22;22327;51.208;6.418;2024-03-02T02:48:36;12.90;95.90
36292;DHT22;22327;51.208;6.418;2024-03-02T02:51:36;12.70;96.50
36292;DHT22;22327;51.208;6.418;2024-03-02T02:54:37;12.50;96.90
36292;DHT22;22327;51.208;6.418;2024-03-02T02:57:42;12.50;96.90
36292;DHT22;22327;51.208;6.418;2024-03-02T03:00:44;12.50;97.00
36292;DHT22;22327;51.208;6.418;2024-03-02T03:03:45;12.40;96.90
36292;DHT22;22327;51.208;6.418;2024-03-02T03:06:45;12.30;97.20
36292;DHT22;22327;51.208;6.418;2024-03-02T03:09:46;12.40;97.00
36292;DHT22;22327;51.208;6.418;2024-03-02T03:12:47;12.20;97.30
36292;DHT22;22327;51.208;6.418;2024-03-02T03:15:47;12.20;97.50
36292;DHT22;22327;51.208;6.418;2024-03-02T03:18:48;12.20;97.60
36292;DHT22;22327;51.208;6.418;2024-03-02T03:21:51;12.30;97.90
36292;DHT22;22327;51.208;6.418;2024-03-02T03:24:52;12.30;97.60
36292;DHT22;22327;51.208;6.418;2024-03-02T03:27:53;12.30;97.80
36292;DHT22;22327;51.208;6.418;2024-03-02T03:30:53;12.20;97.70
36292;DHT22;22327;51.208;6.418;2024-03-02T03:33:54;12.10;97.90
36292;DHT22;22327;51.208;6.418;2024-03-02T03:36:54;12.00;98.00
36292;DHT22;22327;51.208;6.418;2024-03-02T03:39:55;11.90;98.20
36292;DHT22;22327;51.208;6.418;2024-03-02T03:42:55;12.00;98.20
36292;DHT22;22327;51.208;6.418;2024-03-02T03:45:57;11.90;98.20
36292;DHT22;22327;51.208;6.418;2024-03-02T03:48:57;11.90;98.20
36292;DHT22;22327;51.208;6.418;2024-03-02T03:51:58;11.90;98.30
36292;DHT22;22327;51.208;6.418;2024-03-02T03:54:58;11.80;98.50
36292;DHT22;22327;51.208;6.418;2024-03-02T03:57:59;11.70;98.80
36292;DHT22;22327;51.208;6.418;2024-03-02T04:01:00;11.70;99.00
36292;DHT22;22327;51.208;6.418;2024-03-02T04:04:00;11.60;99.20
36292;DHT22;22327;51.208;6.418;2024-03-02T04:07:03;11.60;99.50
36292;DHT22;22327;51.208;6.418;2024-03-02T04:10:05;11.50;99.80
36292;DHT22;22327;51.208;6.418;2024-03-02T04:13:08;11.50;99.90
36292;DHT22;22327;51.208;6.418;2024-03-02T04:16:08;11.60;99.90
36292;DHT22;22327;51.208;6.418;2024-03-02T04:19:09;11.50;99.90
36292;DHT22;22327;51.208;6.418;2024-03-02T04:22:09;11.50;99.90
36292;DHT22;22327;51.208;6.418;2024-03-02T04:25:10;11.50;99.90
36292;DHT22;22327;51.208;6.418;2024-03-02T04:28:10;11.60;99.90
36292;DHT22;22327;51.208;6.418;2024-03-02T04:31:12;11.60;99.90
36292;DHT22;22327;51.208;6.418;2024-03-02T04:34:13;11.60;99.90
36292;DHT22;22327;51.208;6.418;2024-03-02T04:37:13;11.60;99.90
36292;DHT22;22327;51.208;6.418;2024-03-02T04:40:15;11.70;99.90
36292;DHT22;22327;51.208;6.418;2024-03-02T04:43:15;11.70;99.90
36292;DHT22;22327;51.208;6.418;2024-03-02T04:46:16;11.70;99.90
36292;DHT22;22327;51.208;6.418;2024-03-02T04:49:17;11.70;99.90
36292;DHT22;22327;51.208;6.418;2024-03-02T04:52:17;11.70;99.90
36292;DHT22;22327;51.208;6.418;2024-03-02T04:55:18;11.60;99.90
36292;DHT22;22327;51.208;6.418;2024-03-02T04:58:27;11.50;99.90
36292;DHT22;22327;51.208;6.418;2024-03-02T05:01:28;11.50;99.90
36292;DHT22;22327;51.208;6.418;2024-03-02T05:04:28;11.50;99.90
36292;DHT22;22327;51.208;6.418;2024-03-02T05:07:29;11.50;99.90
36292;DHT22;22327;51.208;6.418;2024-03-02T05:10:29;11.50;99.90
36292;DHT22;22327;51.208;6.418;2024-03-02T05:13:30;11.60;99.90
36292;DHT22;22327;51.208;6.418;2024-03-02T05:16:34;11.60;99.90
36292;DHT22;22327;51.208;6.418;2024-03-02T05:19:34;11.60;99.90
36292;DHT22;22327;51.208;6.418;2024-03-02T05:22:36;11.60;99.90
36292;DHT22;22327;51.208;6.418;2024-03-02T05:25:36;11.50;99.90
36292;DHT22;22327;51.208;6.418;2024-03-02T05:28:37;11.50;99.90
36292;DHT22;22327;51.208;6.418;2024-03-02T05:31:37;11.50;99.90
36292;DHT22;22327;51.208;6.418;2024-03-02T05:34:38;11.50;99.90
36292;DHT22;22327;51.208;6.418;2024-03-02T05:37:38;11.50;99.90
36292;DHT22;22327;51.208;6.418;2024-03-02T05:40:39;11.50;99.90
36292;DHT22;22327;51.208;6.418;2024-03-02T05:43:40;11.50;99.90
36292;DHT22;22327;51.208;6.418;2024-03-02T05:46:40;11.50;99.90
36292;DHT22;22327;51.208;6.418;2024-03-02T05:49:41;11.50;99.90
36292;DHT22;22327;51.208;6.418;2024-03-02T05:52:43;11.50;99.90
36292;DHT22;22327;51.208;6.418;2024-03-02T05:55:43;11.50;99.90
36292;DHT22;22327;51.208;6.418;2024-03-02T05:58:45;11.40;99.90
36292;DHT22;22327;51.208;6.418;2024-03-02T06:02:09;11.40;99.90
36292;DHT22;22327;51.208;6.418;2024-03-02T06:05:10;11.40;99.90
36292;DHT22;22327;51.208;6.418;2024-03-02T06:08:11;11.60;99.90
36292;DHT22;22327;51.208;6.418;2024-03-02T06:11:12;11.70;99.90
36292;DHT22;22327;51.208;6.418;2024-03-02T06:14:12;11.70;99.70
36292;DHT22;22327;51.208;6.418;2024-03-02T06:17:13;11.70;99.70
36292;DHT22;22327;51.208;6.418;2024-03-02T06:20:14;11.70;99.80
36292;DHT22;22327;51.208;6.418;2024-03-02T06:23:14;11.60;99.70
36292;DHT22;22327;51.208;6.418;2024-03-02T06:26:15;11.60;99.70
36292;DHT22;22327;51.208;6.418;2024-03-02T06:29:15;11.50;99.90
36292;DHT22;22327;51.208;6.418;2024-03-02T06:32:16;11.60;99.90
36292;DHT22;22327;51.208;6.418;2024-03-02T06:35:16;11.70;99.90
36292;DHT22;22327;51.208;6.418;2024-03-02T06:38:17;11.80;99.80
36292;DHT22;22327;51.208;6.418;2024-03-02T06:41:17;11.80;99.80
36292;DHT22;22327;51.208;6.418;2024-03-02T06:44:18;11.90;99.70
36292;DHT22;22327;51.208;6.418;2024-03-02T06:47:19;11.90;99.70
36292;DHT22;22327;51.208;6.418;2024-03-02T06:50:20;12.00;99.50
36292;DHT22;22327;51.208;6.418;2024-03-02T06:53:20;12.00;99.50
36292;DHT22;22327;51.208;6.418;2024-03-02T06:56:22;12.10;99.40
36292;DHT22;22327;51.208;6.418;2024-03-02T06:59:23;12.10;99.20
36292;DHT22;22327;51.208;6.418;2024-03-02T07:02:25;12.20;99.10
36292;DHT22;22327;51.208;6.418;2024-03-02T07:05:28;12.20;99.00
36292;DHT22;22327;51.208;6.418;2024-03-02T07:08:29;12.30;99.00
36292;DHT22;22327;51.208;6.418;2024-03-02T07:11:29;12.40;98.90
36292;DHT22;22327;51.208;6.418;2024-03-02T07:14:30;12.40;98.70
36292;DHT22;22327;51.208;6.418;2024-03-02T07:17:49;12.50;98.60
36292;DHT22;22327;51.208;6.418;2024-03-02T07:20:49;12.50;98.50
36292;DHT22;22327;51.208;6.418;2024-03-02T07:23:50;12.60;98.20
36292;DHT22;22327;51.208;6.418;2024-03-02T07:26:51;12.70;98.30
36292;DHT22;22327;51.208;6.418;2024-03-02T07:29:52;12.70;98.10
36292;DHT22;22327;51.208;6.418;2024-03-02T07:32:52;12.70;98.00
36292;DHT22;22327;51.208;6.418;2024-03-02T07:35:56;12.70;98.20
36292;DHT22;22327;51.208;6.418;2024-03-02T07:38:57;12.70;98.10
36292;DHT22;22327;51.208;6.418;2024-03-02T07:41:57;12.70;97.90
36292;DHT22;22327;51.208;6.418;2024-03-02T07:44:58;12.70;98.00
36292;DHT22;22327;51.208;6.418;2024-03-02T07:47:58;12.70;98.20
36292;DHT22;22327;51.208;6.418;2024-03-02T07:50:59;12.90;98.00
36292;DHT22;22327;51.208;6.418;2024-03-02T07:54:00;13.10;97.40
36292;DHT22;22327;51.208;6.418;2024-03-02T07:57:01;13.10;97.20
36292;DHT22;22327;51.208;6.418;2024-03-02T08:00:02;13.00;97.20
36292;DHT22;22327;51.208;6.418;2024-03-02T08:03:02;12.80;97.20
36292;DHT22;22327;51.208;6.418;2024-03-02T08:06:04;12.70;97.60
36292;DHT22;22327;51.208;6.418;2024-03-02T08:09:04;12.70;97.80
36292;DHT22;22327;51.208;6.418;2024-03-02T08:12:10;12.60;97.80
36292;DHT22;22327;51.208;6.418;2024-03-02T08:15:11;12.50;97.90
36292;DHT22;22327;51.208;6.418;2024-03-02T08:18:13;12.60;98.10
36292;DHT22;22327;51.208;6.418;2024-03-02T08:21:14;12.80;98.40
36292;DHT22;22327;51.208;6.418;2024-03-02T08:24:14;13.10;97.40
36292;DHT22;22327;51.208;6.418;2024-03-02T08:27:15;13.30;97.40
36292;DHT22;22327;51.208;6.418;2024-03-02T08:30:16;13.60;97.60
36292;DHT22;22327;51.208;6.418;2024-03-02T08:33:16;14.00;96.90
36292;DHT22;22327;51.208;6.418;2024-03-02T08:36:17;14.40;95.80
36292;DHT22;22327;51.208;6.418;2024-03-02T08:39:18;14.70;95.60
36292;DHT22;22327;51.208;6.418;2024-03-02T08:42:19;15.10;95.30
36292;DHT22;22327;51.208;6.418;2024-03-02T08:45:20;15.30;93.90
36292;DHT22;22327;51.208;6.418;2024-03-02T08:48:21;15.40;93.70
36292;DHT22;22327;51.208;6.418;2024-03-02T08:51:21;15.40;93.00
36292;DHT22;22327;51.208;6.418;2024-03-02T08:54:22;15.40;93.20
36292;DHT22;22327;51.208;6.418;2024-03-02T08:57:22;15.70;94.20
36292;DHT22;22327;51.208;6.418;2024-03-02T09:00:23;16.20;92.60
36292;DHT22;22327;51.208;6.418;2024-03-02T09:03:24;16.50;91.80
36292;DHT22;22327;51.208;6.418;2024-03-02T09:06:24;16.70;91.70
36292;DHT22;22327;51.208;6.418;2024-03-02T09:09:25;17.00;90.20
36292;DHT22;22327;51.208;6.418;2024-03-02T09:12:26;17.10;90.00
36292;DHT22;22327;51.208;6.418;2024-03-02T09:15:26;17.00;88.30
36292;DHT22;22327;51.208;6.418;2024-03-02T09:18:27;16.80;87.60
36292;DHT22;22327;51.208;6.418;2024-03-02T09:21:27;16.70;88.50
36292;DHT22;22327;51.208;6.418;2024-03-02T09:24:30;16.60;87.40
36292;DHT22;22327;51.208;6.418;2024-03-02T09:27:30;16.40;88.80
36292;DHT22;22327;51.208;6.418;2024-03-02T09:30:33;16.40;88.40
36292;DHT22;22327;51.208;6.418;2024-03-02T09:33:34;16.40;89.10
36292;DHT22;22327;51.208;6.418;2024-03-02T09:36:34;16.50;88.20
36292;DHT22;22327;51.208;6.418;2024-03-02T09:39:35;16.60;87.60
36292;DHT22;22327;51.208;6.418;2024-03-02T09:42:36;16.70;86.20
36292;DHT22;22327;51.208;6.418;2024-03-02T09:45:37;16.80;86.80
36292;DHT22;22327;51.208;6.418;2024-03-02T09:48:38;17.10;86.40
36292;DHT22;22327;51.208;6.418;2024-03-02T09:51:40;17.50;85.90
36292;DHT22;22327;51.208;6.418;2024-03-02T09:54:41;18.00;83.60
36292;DHT22;22327;51.208;6.418;2024-03-02T09:57:41;18.10;79.60
36292;DHT22;22327;51.208;6.418;2024-03-02T10:00:42;18.10;78.30
36292;DHT22;22327;51.208;6.418;2024-03-02T10:03:44;17.80;78.40
36292;DHT22;22327;51.208;6.418;2024-03-02T10:06:45;17.70;79.00
36292;DHT22;22327;51.208;6.418;2024-03-02T10:09:48;17.50;78.20
36292;DHT22;22327;51.208;6.418;2024-03-02T10:12:59;17.10;77.20
36292;DHT22;22327;51.208;6.418;2024-03-02T10:16:12;16.90;79.00
36292;DHT22;22327;51.208;6.418;2024-03-02T10:19:23;16.80;79.30
36292;DHT22;22327;51.208;6.418;2024-03-02T10:22:24;16.60;81.30
36292;DHT22;22327;51.208;6.418;2024-03-02T10:25:32;16.50;82.10
36292;DHT22;22327;51.208;6.418;2024-03-02T10:28:32;16.40;81.00
36292;DHT22;22327;51.208;6.418;2024-03-02T10:31:33;16.30;80.70
36292;DHT22;22327;51.208;6.418;2024-03-02T10:34:34;16.20;80.80
36292;DHT22;22327;51.208;6.418;2024-03-02T10:37:36;16.00;80.50
36292;DHT22;22327;51.208;6.418;2024-03-02T10:40:36;15.90;81.40
36292;DHT22;22327;51.208;6.418;2024-03-02T10:43:37;15.90;80.20
36292;DHT22;22327;51.208;6.418;2024-03-02T10:46:38;15.90;80.90
36292;DHT22;22327;51.208;6.418;2024-03-02T10:49:40;16.00;78.30
36292;DHT22;22327;51.208;6.418;2024-03-02T10:52:42;15.90;78.20
36292;DHT22;22327;51.208;6.418;2024-03-02T10:55:43;15.80;77.80
36292;DHT22;22327;51.208;6.418;2024-03-02T10:58:43;15.80;78.30
36292;DHT22;22327;51.208;6.418;2024-03-02T11:01:46;15.90;78.00
36292;DHT22;22327;51.208;6.418;2024-03-02T11:04:48;15.90;77.80
36292;DHT22;22327;51.208;6.418;2024-03-02T11:07:50;15.90;78.00
36292;DHT22;22327;51.208;6.418;2024-03-02T11:10:58;15.90;79.00
36292;DHT22;22327;51.208;6.418;2024-03-02T11:14:02;15.90;77.90
36292;DHT22;22327;51.208;6.418;2024-03-02T11:17:09;15.90;78.30
36292;DHT22;22327;51.208;6.418;2024-03-02T11:20:11;15.90;77.90
36292;DHT22;22327;51.208;6.418;2024-03-02T11:23:11;15.90;76.60
36292;DHT22;22327;51.208;6.418;2024-03-02T11:26:22;15.90;77.60
36292;DHT22;22327;51.208;6.418;2024-03-02T11:32:40;16.10;77.40
36292;DHT22;22327;51.208;6.418;2024-03-02T11:35:42;16.00;78.40
36292;DHT22;22327;51.208;6.418;2024-03-02T11:38:43;16.20;78.60
36292;DHT22;22327;51.208;6.418;2024-03-02T11:41:46;16.20;78.10
36292;DHT22;22327;51.208;6.418;2024-03-02T11:44:48;16.20;78.90
36292;DHT22;22327;51.208;6.418;2024-03-02T11:47:53;16.20;80.20
36292;DHT22;22327;51.208;6.418;2024-03-02T11:50:58;16.30;79.40
36292;DHT22;22327;51.208;6.418;2024-03-02T11:53:59;16.20;79.80
36292;DHT22;22327;51.208;6.418;2024-03-02T11:57:05;16.30;79.90
36292;DHT22;22327;51.208;6.418;2024-03-02T12:00:06;16.30;79.40
36292;DHT22;22327;51.208;6.418;2024-03-02T12:03:16;16.20;78.30
36292;DHT22;22327;51.208;6.418;2024-03-02T12:06:17;16.20;78.70
36292;DHT22;22327;51.208;6.418;2024-03-02T12:09:20;16.40;78.40
36292;DHT22;22327;51.208;6.418;2024-03-02T12:12:21;16.60;77.10
36292;DHT22;22327;51.208;6.418;2024-03-02T12:15:26;16.60;77.00
36292;DHT22;22327;51.208;6.418;2024-03-02T12:18:27;16.70;77.80
36292;DHT22;22327;51.208;6.418;2024-03-02T12:21:28;16.80;76.60
36292;DHT22;22327;51.208;6.418;2024-03-02T12:24:29;17.00;76.70
36292;DHT22;22327;51.208;6.418;2024-03-02T12:27:30;17.10;76.40
36292;DHT22;22327;51.208;6.418;2024-03-02T12:30:31;17.10;74.80
36292;DHT22;22327;51.208;6.418;2024-03-02T12:33:35;17.20;74.80
36292;DHT22;22327;51.208;6.418;2024-03-02T12:36:39;17.20;75.30
36292;DHT22;22327;51.208;6.418;2024-03-02T12:39:39;17.20;75.90
36292;DHT22;22327;51.208;6.418;2024-03-02T12:42:40;17.30;76.20
36292;DHT22;22327;51.208;6.418;2024-03-02T12:45:42;17.30;75.80
36292;DHT22;22327;51.208;6.418;2024-03-02T12:48:42;17.30;76.00
36292;DHT22;22327;51.208;6.418;2024-03-02T12:51:43;17.30;76.00
36292;DHT22;22327;51.208;6.418;2024-03-02T12:54:44;17.20;77.10
36292;DHT22;22327;51.208;6.418;2024-03-02T12:57:44;17.30;78.00
36292;DHT22;22327;51.208;6.418;2024-03-02T13:00:45;17.40;78.60
36292;DHT22;22327;51.208;6.418;2024-03-02T13:03:48;17.60;78.30
36292;DHT22;22327;51.208;6.418;2024-03-02T13:06:49;17.60;77.30
36292;DHT22;22327;51.208;6.418;2024-03-02T13:09:55;17.50;77.70
36292;DHT22;22327;51.208;6.418;2024-03-02T13:12:56;17.40;78.50
36292;DHT22;22327;51.208;6.418;2024-03-02T13:15:57;17.30;79.40
36292;DHT22;22327;51.208;6.418;2024-03-02T13:18:58;17.40;79.80
36292;DHT22;22327;51.208;6.418;2024-03-02T13:21:58;17.40;79.20
36292;DHT22;22327;51.208;6.418;2024-03-02T13:24:59;17.40;77.70
36292;DHT22;22327;51.208;6.418;2024-03-02T13:28:01;17.30;78.50
36292;DHT22;22327;51.208;6.418;2024-03-02T13:31:03;17.30;78.40
36292;DHT22;22327;51.208;6.418;2024-03-02T13:34:04;17.20;78.30
36292;DHT22;22327;51.208;6.418;2024-03-02T13:37:04;17.10;78.70
36292;DHT22;22327;51.208;6.418;2024-03-02T13:40:06;17.10;79.00
36292;DHT22;22327;51.208;6.418;2024-03-02T13:43:08;17.20;79.80
36292;DHT22;22327;51.208;6.418;2024-03-02T13:46:08;17.30;78.50
36292;DHT22;22327;51.208;6.418;2024-03-02T13:49:10;17.40;79.10
36292;DHT22;22327;51.208;6.418;2024-03-02T13:52:11;17.50;77.80
36292;DHT22;22327;51.208;6.418;2024-03-02T13:55:13;17.50;77.80
36292;DHT22;22327;51.208;6.418;2024-03-02T13:58:14;17.40;77.90
36292;DHT22;22327;51.208;6.418;2024-03-02T14:01:14;17.30;77.50
36292;DHT22;22327;51.208;6.418;2024-03-02T14:04:15;17.20;77.70
36292;DHT22;22327;51.208;6.418;2024-03-02T14:07:15;17.20;78.50
36292;DHT22;22327;51.208;6.418;2024-03-02T14:10:16;17.20;78.50
36292;DHT22;22327;51.208;6.418;2024-03-02T14:13:18;17.20;78.20
36292;DHT22;22327;51.208;6.418;2024-03-02T14:16:18;17.10;78.40
36292;DHT22;22327;51.208;6.418;2024-03-02T14:19:19;17.10;78.30
36292;DHT22;22327;51.208;6.418;2024-03-02T14:22:21;17.10;78.80
36292;DHT22;22327;51.208;6.418;2024-03-02T14:25:22;17.20;78.90
36292;DHT22;22327;51.208;6.418;2024-03-02T14:28:22;17.30;79.40
36292;DHT22;22327;51.208;6.418;2024-03-02T14:31:23;17.30;80.40
36292;DHT22;22327;51.208;6.418;2024-03-02T14:34:23;17.30;80.80
36292;DHT22;22327;51.208;6.418;2024-03-02T14:37:24;17.10;81.30
36292;DHT22;22327;51.208;6.418;2024-03-02T14:40:25;17.00;81.50
36292;DHT22;22327;51.208;6.418;2024-03-02T14:43:27;16.80;82.20
36292;DHT22;22327;51.208;6.418;2024-03-02T14:46:28;16.80;82.50
36292;DHT22;22327;51.208;6.418;2024-03-02T14:49:30;16.70;82.80
36292;DHT22;22327;51.208;6.418;2024-03-02T14:52:30;16.80;83.40
36292;DHT22;22327;51.208;6.418;2024-03-02T14:55:31;16.80;83.50
36292;DHT22;22327;51.208;6.418;2024-03-02T14:58:31;16.90;83.60
36292;DHT22;22327;51.208;6.418;2024-03-02T15:01:32;17.00;83.10
36292;DHT22;22327;51.208;6.418;2024-03-02T15:04:33;17.00;83.10
36292;DHT22;22327;51.208;6.418;2024-03-02T15:07:34;17.10;83.00
36292;DHT22;22327;51.208;6.418;2024-03-02T15:10:34;17.20;83.00
36292;DHT22;22327;51.208;6.418;2024-03-02T15:13:35;17.20;81.90
36292;DHT22;22327;51.208;6.418;2024-03-02T15:16:35;17.20;82.20
36292;DHT22;22327;51.208;6.418;2024-03-02T15:19:36;17.20;82.10
36292;DHT22;22327;51.208;6.418;2024-03-02T15:22:36;17.10;81.80
36292;DHT22;22327;51.208;6.418;2024-03-02T15:25:37;17.00;82.90
36292;DHT22;22327;51.208;6.418;2024-03-02T15:28:37;17.00;83.20
36292;DHT22;22327;51.208;6.418;2024-03-02T15:31:38;16.90;82.90
36292;DHT22;22327;51.208;6.418;2024-03-02T15:34:38;16.90;83.60
36292;DHT22;22327;51.208;6.418;2024-03-02T15:37:39;16.90;83.30
36292;DHT22;22327;51.208;6.418;2024-03-02T15:40:39;16.90;83.20
36292;DHT22;22327;51.208;6.418;2024-03-02T15:43:40;16.90;82.20
36292;DHT22;22327;51.208;6.418;2024-03-02T15:46:43;16.80;82.10
36292;DHT22;22327;51.208;6.418;2024-03-02T15:49:43;16.80;82.50
36292;DHT22;22327;51.208;6.418;2024-03-02T15:52:44;16.90;82.40
36292;DHT22;22327;51.208;6.418;2024-03-02T15:55:47;16.90;81.30
36292;DHT22;22327;51.208;6.418;2024-03-02T15:58:50;16.80;81.50
36292;DHT22;22327;51.208;6.418;2024-03-02T16:01:50;16.80;81.70
36292;DHT22;22327;51.208;6.418;2024-03-02T16:04:51;16.80;81.60
36292;DHT22;22327;51.208;6.418;2024-03-02T16:07:52;16.80;81.90
36292;DHT22;22327;51.208;6.418;2024-03-02T16:10:53;16.80;82.10
36292;DHT22;22327;51.208;6.418;2024-03-02T16:13:53;16.80;81.80
36292;DHT22;22327;51.208;6.418;2024-03-02T16:16:54;16.70;82.10
36292;DHT22;22327;51.208;6.418;2024-03-02T16:19:54;16.80;81.80
36292;DHT22;22327;51.208;6.418;2024-03-02T16:22:57;16.80;81.10
36292;DHT22;22327;51.208;6.418;2024-03-02T16:25:57;16.70;81.40
36292;DHT22;22327;51.208;6.418;2024-03-02T16:28:58;16.70;81.70
36292;DHT22;22327;51.208;6.418;2024-03-02T16:31:58;16.70;81.20
36292;DHT22;22327;51.208;6.418;2024-03-02T16:35:00;16.70;81.60
36292;DHT22;22327;51.208;6.418;2024-03-02T16:38:00;16.60;81.40
36292;DHT22;22327;51.208;6.418;2024-03-02T16:41:01;16.50;81.40
36292;DHT22;22327;51.208;6.418;2024-03-02T16:44:04;16.50;81.30
36292;DHT22;22327;51.208;6.418;2024-03-02T16:47:05;16.50;81.10
36292;DHT22;22327;51.208;6.418;2024-03-02T16:50:06;16.50;81.10
36292;DHT22;22327;51.208;6.418;2024-03-02T16:53:09;16.50;81.30
36292;DHT22;22327;51.208;6.418;2024-03-02T16:56:09;16.50;81.10
36292;DHT22;22327;51.208;6.418;2024-03-02T16:59:10;16.50;81.20
36292;DHT22;22327;51.208;6.418;2024-03-02T17:02:11;16.40;82.10
36292;DHT22;22327;51.208;6.418;2024-03-02T17:05:11;16.30;81.70
36292;DHT22;22327;51.208;6.418;2024-03-02T17:08:12;16.40;81.80
36292;DHT22;22327;51.208;6.418;2024-03-02T17:11:12;16.30;82.00
36292;DHT22;22327;51.208;6.418;2024-03-02T17:14:13;16.30;82.30
36292;DHT22;22327;51.208;6.418;2024-03-02T17:17:13;16.30;82.60
36292;DHT22;22327;51.208;6.418;2024-03-02T17:20:14;16.20;82.70
36292;DHT22;22327;51.208;6.418;2024-03-02T17:23:15;16.20;83.00
36292;DHT22;22327;51.208;6.418;2024-03-02T17:26:15;16.20;83.60
36292;DHT22;22327;51.208;6.418;2024-03-02T17:29:16;16.10;83.40
36292;DHT22;22327;51.208;6.418;2024-03-02T17:32:17;16.20;83.30
36292;DHT22;22327;51.208;6.418;2024-03-02T17:35:18;16.20;83.10
36292;DHT22;22327;51.208;6.418;2024-03-02T17:38:18;16.20;83.30
36292;DHT22;22327;51.208;6.418;2024-03-02T17:41:19;16.20;83.20
36292;DHT22;22327;51.208;6.418;2024-03-02T17:44:20;16.20;83.10
36292;DHT22;22327;51.208;6.418;2024-03-02T17:47:20;16.20;83.10
36292;DHT22;22327;51.208;6.418;2024-03-02T17:50:21;16.20;83.20
36292;DHT22;22327;51.208;6.418;2024-03-02T17:53:21;16.10;83.20
36292;DHT22;22327;51.208;6.418;2024-03-02T17:56:22;16.20;83.20
36292;DHT22;22327;51.208;6.418;2024-03-02T17:59:23;16.20;83.10
36292;DHT22;22327;51.208;6.418;2024-03-02T18:02:24;16.10;83.00
36292;DHT22;22327;51.208;6.418;2024-03-02T18:05:24;16.10;82.70
36292;DHT22;22327;51.208;6.418;2024-03-02T18:08:25;16.20;82.20
36292;DHT22;22327;51.208;6.418;2024-03-02T18:11:25;16.10;83.10
36292;DHT22;22327;51.208;6.418;2024-03-02T18:14:26;16.20;82.50
36292;DHT22;22327;51.208;6.418;2024-03-02T18:17:27;16.20;82.40
36292;DHT22;22327;51.208;6.418;2024-03-02T18:20:27;16.20;82.00
36292;DHT22;22327;51.208;6.418;2024-03-02T18:23:28;16.20;82.10
36292;DHT22;22327;51.208;6.418;2024-03-02T18:26:29;16.20;82.20
36292;DHT22;22327;51.208;6.418;2024-03-02T18:29:33;16.20;82.10
36292;DHT22;22327;51.208;6.418;2024-03-02T18:32:33;16.20;82.10
36292;DHT22;22327;51.208;6.418;2024-03-02T18:35:34;16.20;82.10
36292;DHT22;22327;51.208;6.418;2024-03-02T18:38:36;16.20;82.00
36292;DHT22;22327;51.208;6.418;2024-03-02T18:41:37;16.20;82.00
36292;DHT22;22327;51.208;6.418;2024-03-02T18:44:37;16.20;81.90
36292;DHT22;22327;51.208;6.418;2024-03-02T18:47:38;16.20;82.10
36292;DHT22;22327;51.208;6.418;2024-03-02T18:50:39;16.10;81.80
36292;DHT22;22327;51.208;6.418;2024-03-02T18:53:40;16.20;81.90
36292;DHT22;22327;51.208;6.418;2024-03-02T18:56:40;16.20;82.10
36292;DHT22;22327;51.208;6.418;2024-03-02T18:59:41;16.20;82.10
36292;DHT22;22327;51.208;6.418;2024-03-02T19:02:41;16.20;82.60
36292;DHT22;22327;51.208;6.418;2024-03-02T19:05:42;16.20;82.80
36292;DHT22;22327;51.208;6.418;2024-03-02T19:08:42;16.20;82.70
36292;DHT22;22327;51.208;6.418;2024-03-02T19:11:43;16.10;82.50